セントジョンズ の空港の天気 - METARとTAF

セント・ジョンズ国際空港 ( CYYT / YYT ) - カナダ ニューファンドランド・ラブラドール州セントジョンズ
飛行場実況気象(Metar)
観測時間04/25 11:30 NDT (04/25 14:00 UTC)
風向・風速西 9m/s
視程10km以上
天気現象
全天の8割程度の雲 雲底高度 6710m
気温15℃
湿度33%
気圧1020.9hPa
METARCYYT 251400Z 27017KT 15SM BKN220 15/M01 A3013 RMK CI5 SLP209
過去の天気等 Google飛行場航空写真 Wunderground天気予報

過去48時間のMETAR

飛行場予報(TAF)
発表時間: 4/25 09:09 NDT (4/25 11:39 UTC)
予報対象時間: 25日9時 NDT ~ 26日9時 NDT
風向・風速西南西 8m/s
視程10km以上
全天の8割程度の雲 雲底高度 6,400m
25日11時 NDT ~ 25日13時 NDT に徐々に
風向・風速西南西 8m/s 瞬間風速 13m/s
25日21時 NDT から
風向・風速西南西 6m/s 瞬間風速 11m/s
視程10km以上
全天の8割程度の雲 雲底高度 5,490m
25日23時 NDT ~ 26日1時 NDT に徐々に
風向・風速西南西 6m/s
26日6時 NDT から
風向・風速西南西 5m/s
視程10km以上
全天の4割程度の雲 雲底高度 150m
全天の4割程度の雲 雲底高度 5,490m
TAF CYYT 251139Z 2512/2612 25015KT P6SM BKN210
BECMG 2514/2516 24015G25KT
FM260000 24012G22KT P6SM BKN180
BECMG 2602/2604 24012KT
FM260900 24010KT P6SM SCT005 SCT180 RMK NXT FCST BY 251800Z